createdAt,value
2023-01-09T00:01:14.406Z,2.93
2023-01-09T00:03:42.540Z,3.23
2023-01-09T00:06:10.622Z,3.00
2023-01-09T00:08:40.236Z,2.80
2023-01-09T00:11:08.576Z,2.73
2023-01-09T00:13:37.297Z,2.30
2023-01-09T00:16:05.866Z,2.63
2023-01-09T00:18:34.206Z,2.30
2023-01-09T00:21:02.345Z,2.30
2023-01-09T00:23:30.464Z,2.10
2023-01-09T00:26:08.095Z,2.63
2023-01-09T00:28:36.824Z,2.30
2023-01-09T00:31:06.655Z,2.43
2023-01-09T00:33:36.650Z,2.03
2023-01-09T00:36:05.767Z,1.90
2023-01-09T00:38:33.804Z,1.90
2023-01-09T00:41:03.382Z,1.90
2023-01-09T00:43:35.811Z,1.73
2023-01-09T00:46:06.857Z,1.80
2023-01-09T00:48:38.666Z,1.70
2023-01-09T00:51:08.207Z,1.60
2023-01-09T00:53:38.802Z,1.60
2023-01-09T00:56:10.996Z,1.80
2023-01-09T00:58:40.727Z,1.40
2023-01-09T01:01:08.993Z,1.40
2023-01-09T01:03:37.235Z,1.50
2023-01-09T01:06:23.093Z,1.40
2023-01-09T01:08:51.315Z,1.60
2023-01-09T01:11:19.463Z,1.50
2023-01-09T01:13:49.104Z,1.30
2023-01-09T01:16:18.322Z,1.30
2023-01-09T01:18:46.773Z,1.50
2023-01-09T01:21:16.083Z,1.40
2023-01-09T01:23:44.661Z,1.40
2023-01-09T01:26:14.859Z,1.20
2023-01-09T01:28:43.657Z,1.27
2023-01-09T01:31:19.411Z,1.20
2023-01-09T01:33:47.466Z,1.30
2023-01-09T01:36:17.422Z,1.30
2023-01-09T01:38:46.939Z,1.30
2023-01-09T01:41:29.217Z,1.40
2023-01-09T01:43:59.293Z,1.20
2023-01-09T01:46:29.466Z,1.20
2023-01-09T01:49:02.155Z,1.20
2023-01-09T01:51:33.011Z,1.43
2023-01-09T01:54:04.295Z,1.40
2023-01-09T01:56:37.157Z,1.30
2023-01-09T01:59:10.092Z,1.20
2023-01-09T02:01:41.963Z,1.30
2023-01-09T02:04:11.143Z,1.37
2023-01-09T02:06:40.587Z,1.30
2023-01-09T02:09:09.635Z,1.27
2023-01-09T02:11:37.669Z,1.33
2023-01-09T02:14:05.876Z,1.30
2023-01-09T02:16:47.964Z,1.20
2023-01-09T02:19:41.367Z,1.27
2023-01-09T02:22:18.998Z,1.40
2023-01-09T02:25:13.864Z,1.30
2023-01-09T02:28:18.492Z,1.30
2023-01-09T02:30:49.772Z,1.30
2023-01-09T02:33:35.226Z,1.20
2023-01-09T02:36:22.292Z,1.40
2023-01-09T02:39:01.031Z,1.20
2023-01-09T02:41:34.281Z,1.30
2023-01-09T02:44:17.757Z,1.27
2023-01-09T02:46:47.376Z,1.30
2023-01-09T02:49:17.565Z,1.10
2023-01-09T02:51:53.444Z,1.10
2023-01-09T02:54:33.706Z,1.10
2023-01-09T02:57:22.549Z,1.20
2023-01-09T03:00:04.032Z,1.20
2023-01-09T03:02:49.163Z,1.10
2023-01-09T03:05:23.657Z,1.13
2023-01-09T03:07:57.847Z,1.10
2023-01-09T03:10:30.072Z,1.10
2023-01-09T03:13:01.758Z,1.10
2023-01-09T03:15:33.458Z,1.10
2023-01-09T03:18:05.171Z,1.20
2023-01-09T03:20:34.154Z,1.13
2023-01-09T03:23:05.538Z,1.00
2023-01-09T03:25:34.186Z,1.00
2023-01-09T03:28:04.588Z,0.93
2023-01-09T03:30:34.255Z,1.00
2023-01-09T03:33:03.857Z,0.90
2023-01-09T03:35:31.913Z,1.07
2023-01-09T03:38:00.105Z,1.00
2023-01-09T03:40:28.202Z,1.00
2023-01-09T03:42:56.265Z,1.00
2023-01-09T03:45:24.279Z,1.10
2023-01-09T03:47:53.104Z,1.10
2023-01-09T03:50:22.650Z,1.03
2023-01-09T03:52:50.848Z,1.00
2023-01-09T03:55:19.032Z,1.00
2023-01-09T03:57:47.075Z,1.10
2023-01-09T04:00:15.835Z,1.27
2023-01-09T04:02:43.898Z,1.10
2023-01-09T04:05:11.982Z,1.07
2023-01-09T04:07:41.622Z,1.10
2023-01-09T04:10:11.091Z,1.20
2023-01-09T04:12:39.215Z,1.10
2023-01-09T04:15:08.451Z,1.13
2023-01-09T04:17:36.529Z,1.10
2023-01-09T04:20:05.045Z,1.10
2023-01-09T04:22:33.224Z,1.00
2023-01-09T04:25:02.702Z,1.00
2023-01-09T04:27:31.718Z,1.00
2023-01-09T04:29:59.800Z,0.97
2023-01-09T04:32:28.503Z,0.90
2023-01-09T04:34:56.626Z,1.00
2023-01-09T04:37:25.231Z,1.00
2023-01-09T04:39:56.054Z,1.00
2023-01-09T04:42:25.652Z,1.00
2023-01-09T04:44:54.337Z,1.00
2023-01-09T04:47:23.770Z,0.90
2023-01-09T04:49:52.097Z,0.90
2023-01-09T04:52:20.551Z,0.90
2023-01-09T04:54:48.708Z,0.90
2023-01-09T04:57:16.777Z,0.90
2023-01-09T04:59:46.360Z,0.80
2023-01-09T05:02:17.336Z,1.00
2023-01-09T05:04:45.359Z,0.90
2023-01-09T05:07:13.524Z,0.90
2023-01-09T05:09:41.986Z,0.80
2023-01-09T05:12:10.082Z,0.90
2023-01-09T05:14:38.342Z,0.83
2023-01-09T05:17:07.775Z,0.90
2023-01-09T05:19:35.932Z,0.90
2023-01-09T05:22:04.083Z,1.00
2023-01-09T05:24:32.239Z,1.20
2023-01-09T05:27:02.672Z,0.90
2023-01-09T05:29:30.931Z,0.90
2023-01-09T05:31:59.163Z,1.00
2023-01-09T05:34:28.814Z,0.93
2023-01-09T05:36:57.406Z,1.00
2023-01-09T05:39:25.739Z,0.90
2023-01-09T05:41:53.933Z,0.90
2023-01-09T05:44:22.020Z,0.87
2023-01-09T05:46:50.236Z,0.90
2023-01-09T05:49:18.578Z,0.80
2023-01-09T05:51:48.130Z,0.90
2023-01-09T05:54:16.257Z,0.90
2023-01-09T05:56:44.383Z,0.90
2023-01-09T05:59:12.423Z,0.90
2023-01-09T06:01:40.717Z,0.80
2023-01-09T06:04:08.855Z,1.00
2023-01-09T06:06:37.290Z,0.80
2023-01-09T06:09:06.707Z,0.90
2023-01-09T06:11:35.803Z,0.90
2023-01-09T06:14:04.029Z,0.90
2023-01-09T06:16:32.301Z,0.90
2023-01-09T06:19:00.487Z,0.90
2023-01-09T06:21:29.621Z,0.90
2023-01-09T06:23:57.762Z,0.93
2023-01-09T06:26:27.629Z,0.90
2023-01-09T06:28:56.232Z,1.00
2023-01-09T06:31:25.096Z,1.30
2023-01-09T06:33:53.349Z,1.17
2023-01-09T06:36:22.677Z,1.20
2023-01-09T06:38:50.852Z,1.17
2023-01-09T06:41:19.204Z,1.20
2023-01-09T06:43:48.710Z,1.10
2023-01-09T06:46:16.927Z,1.60
2023-01-09T06:48:46.312Z,1.10
2023-01-09T06:51:14.450Z,1.00
2023-01-09T06:53:42.675Z,1.00
2023-01-09T06:56:10.846Z,1.20
2023-01-09T06:58:39.173Z,0.97
2023-01-09T07:01:09.269Z,1.20
2023-01-09T07:03:37.435Z,0.90
2023-01-09T07:06:06.280Z,2.93
2023-01-09T07:08:34.499Z,1.00
2023-01-09T07:11:02.717Z,0.97
2023-01-09T07:13:30.817Z,1.23
2023-01-09T07:15:59.146Z,1.00
2023-01-09T07:18:28.610Z,1.00
2023-01-09T07:20:56.637Z,1.00
2023-01-09T07:23:24.677Z,1.00
2023-01-09T07:25:53.743Z,0.90
2023-01-09T07:28:21.885Z,1.47
2023-01-09T07:30:49.961Z,0.97
2023-01-09T07:33:18.023Z,1.00
2023-01-09T07:35:47.480Z,1.20
2023-01-09T07:38:15.599Z,0.90
2023-01-09T07:40:43.683Z,1.00
2023-01-09T07:43:11.834Z,1.20
2023-01-09T07:45:39.908Z,1.00
2023-01-09T07:48:08.326Z,1.50
2023-01-09T07:50:36.458Z,0.90
2023-01-09T07:53:05.944Z,0.93
2023-01-09T07:55:34.052Z,0.90
2023-01-09T07:58:02.220Z,0.90
2023-01-09T08:00:32.954Z,0.83
2023-01-09T08:03:01.415Z,0.90
2023-01-09T08:05:29.542Z,1.00
2023-01-09T08:07:57.730Z,1.00
2023-01-09T08:10:27.348Z,1.10
2023-01-09T08:12:55.403Z,1.13
2023-01-09T08:15:23.564Z,1.00
2023-01-09T08:17:51.628Z,1.10
2023-01-09T08:20:19.909Z,1.00
2023-01-09T08:22:50.711Z,1.10
2023-01-09T08:25:19.560Z,1.00
2023-01-09T08:27:49.108Z,1.13
2023-01-09T08:30:18.292Z,1.00
2023-01-09T08:32:50.427Z,1.00
2023-01-09T08:35:18.924Z,1.10
2023-01-09T08:37:47.742Z,1.00
2023-01-09T08:40:17.083Z,2.80
2023-01-09T08:43:02.985Z,1.17
2023-01-09T08:45:51.091Z,1.07
2023-01-09T08:48:19.190Z,1.00
2023-01-09T08:50:47.382Z,1.00
2023-01-09T08:53:15.651Z,1.07
2023-01-09T08:55:45.350Z,1.20
2023-01-09T08:58:13.529Z,1.10
2023-01-09T09:00:43.361Z,0.90
2023-01-09T09:03:12.259Z,1.10
2023-01-09T09:05:40.428Z,1.30
2023-01-09T09:08:08.416Z,1.13
2023-01-09T09:10:36.706Z,1.20
2023-01-09T09:13:04.804Z,1.00
2023-01-09T09:15:34.361Z,1.03
2023-01-09T09:18:05.443Z,1.60
2023-01-09T09:20:35.288Z,1.13
2023-01-09T09:23:03.461Z,1.23
2023-01-09T09:25:31.955Z,1.30
2023-01-09T09:28:01.308Z,1.10
2023-01-09T09:30:29.890Z,1.10
2023-01-09T09:32:58.000Z,1.20
2023-01-09T09:35:28.495Z,2.20
2023-01-09T09:37:58.616Z,1.40
2023-01-09T09:40:40.931Z,1.20
2023-01-09T09:44:05.476Z,1.00
2023-01-09T09:46:43.354Z,1.20
2023-01-09T09:49:18.706Z,1.10
2023-01-09T09:52:00.817Z,1.20
2023-01-09T09:54:34.237Z,1.20
2023-01-09T09:57:07.333Z,0.90
2023-01-09T09:59:37.088Z,1.93
2023-01-09T10:02:14.772Z,1.10
2023-01-09T10:04:49.220Z,1.03
2023-01-09T10:07:23.969Z,1.10
2023-01-09T10:09:55.783Z,1.20
2023-01-09T10:12:30.604Z,1.07
2023-01-09T10:15:00.293Z,1.23
2023-01-09T10:17:51.565Z,1.13
2023-01-09T10:20:43.607Z,1.10
2023-01-09T10:23:35.049Z,0.93
2023-01-09T10:26:08.582Z,2.27
2023-01-09T10:28:59.610Z,1.20
2023-01-09T10:31:35.511Z,1.17
2023-01-09T10:34:15.660Z,1.20
2023-01-09T10:36:59.259Z,1.07
2023-01-09T10:39:35.111Z,1.30
2023-01-09T10:42:12.260Z,1.20
2023-01-09T10:44:48.912Z,1.20
2023-01-09T10:47:20.291Z,1.30
2023-01-09T10:49:50.928Z,1.20
2023-01-09T10:52:20.923Z,1.10
2023-01-09T10:54:56.929Z,1.50
2023-01-09T10:57:43.009Z,1.03
2023-01-09T11:00:23.218Z,1.60
2023-01-09T11:02:52.117Z,1.20
2023-01-09T11:05:23.536Z,1.13
2023-01-09T11:07:56.210Z,1.30
2023-01-09T11:10:47.366Z,1.20
2023-01-09T11:13:19.831Z,1.30
2023-01-09T11:15:59.901Z,1.40
2023-01-09T11:18:28.825Z,1.10
2023-01-09T11:20:57.131Z,1.43
2023-01-09T11:23:28.059Z,1.40
2023-01-09T11:25:59.062Z,1.10
2023-01-09T11:28:27.412Z,1.40
2023-01-09T11:30:59.772Z,1.30
2023-01-09T11:33:29.926Z,1.30
2023-01-09T11:36:02.847Z,1.97
2023-01-09T11:38:33.071Z,1.87
2023-01-09T11:41:06.722Z,1.60
2023-01-09T11:43:39.104Z,1.40
2023-01-09T11:46:09.286Z,1.23
2023-01-09T11:48:40.625Z,1.40
2023-01-09T11:51:20.567Z,1.20
2023-01-09T11:54:13.417Z,1.40
2023-01-09T11:56:43.921Z,1.50
2023-01-09T11:59:13.950Z,1.17
2023-01-09T12:02:05.301Z,1.20
2023-01-09T12:04:38.966Z,1.97
2023-01-09T12:07:44.365Z,1.20
2023-01-09T12:10:38.159Z,1.50
2023-01-09T12:13:20.003Z,1.20
2023-01-09T12:15:59.547Z,1.10
2023-01-09T12:18:41.483Z,1.30
2023-01-09T12:21:26.509Z,1.23
2023-01-09T12:24:11.186Z,1.20
2023-01-09T12:26:46.663Z,1.20
2023-01-09T12:29:34.718Z,1.30
2023-01-09T12:32:17.144Z,1.30
2023-01-09T12:35:03.095Z,1.40
2023-01-09T12:37:51.825Z,1.30
2023-01-09T12:40:34.768Z,1.53
2023-01-09T12:43:10.005Z,1.27
2023-01-09T12:45:54.156Z,1.30
2023-01-09T12:48:41.905Z,1.33
2023-01-09T12:51:22.682Z,1.30
2023-01-09T12:53:56.656Z,1.20
2023-01-09T12:56:30.744Z,2.20
2023-01-09T12:59:02.699Z,1.20
2023-01-09T13:01:38.928Z,1.50
2023-01-09T13:04:14.068Z,1.20
2023-01-09T13:06:48.734Z,1.17
2023-01-09T13:09:26.058Z,1.80
2023-01-09T13:12:03.227Z,1.10
2023-01-09T13:14:45.505Z,1.10
2023-01-09T13:17:19.733Z,1.20
2023-01-09T13:19:48.038Z,1.10
2023-01-09T13:22:18.136Z,1.30
2023-01-09T13:25:20.087Z,1.23
2023-01-09T13:27:54.776Z,1.10
2023-01-09T13:30:38.425Z,1.13
2023-01-09T13:33:18.624Z,1.20
2023-01-09T13:35:52.174Z,1.20
2023-01-09T13:38:23.794Z,1.10
2023-01-09T13:41:26.993Z,1.20
2023-01-09T13:43:57.118Z,0.90
2023-01-09T13:46:34.154Z,1.30
2023-01-09T13:49:03.981Z,1.10
2023-01-09T13:51:59.072Z,1.30
2023-01-09T13:55:01.710Z,1.10
2023-01-09T13:57:33.197Z,1.10
2023-01-09T14:00:39.755Z,0.90
2023-01-09T14:03:19.238Z,1.03
2023-01-09T14:06:16.262Z,1.10
2023-01-09T14:08:46.421Z,0.93
2023-01-09T14:11:21.828Z,1.80
2023-01-09T14:14:02.718Z,0.90
2023-01-09T14:16:32.295Z,1.20
2023-01-09T14:19:06.177Z,1.07
2023-01-09T14:21:52.039Z,0.80
2023-01-09T14:24:27.691Z,1.00
2023-01-09T14:26:57.789Z,1.20
2023-01-09T14:29:43.576Z,0.83
2023-01-09T14:32:54.227Z,1.70
2023-01-09T14:35:42.724Z,0.80
2023-01-09T14:38:30.830Z,0.90
2023-01-09T14:41:04.969Z,0.90
2023-01-09T14:43:55.409Z,1.00
2023-01-09T14:46:24.881Z,1.00
2023-01-09T14:49:04.643Z,1.00
2023-01-09T14:51:37.046Z,0.90
2023-01-09T14:54:20.510Z,1.00
2023-01-09T14:56:48.699Z,0.90
2023-01-09T14:59:18.767Z,1.20
2023-01-09T15:01:51.551Z,1.00
2023-01-09T15:04:27.233Z,1.43
2023-01-09T15:06:55.543Z,0.97
2023-01-09T15:09:27.785Z,1.10
2023-01-09T15:11:59.046Z,0.93
2023-01-09T15:14:32.525Z,0.93
2023-01-09T15:17:01.623Z,0.90
2023-01-09T15:19:31.884Z,0.80
2023-01-09T15:22:05.673Z,0.87
2023-01-09T15:24:35.776Z,0.90
2023-01-09T15:27:11.343Z,0.87
2023-01-09T15:29:43.254Z,0.90
2023-01-09T15:32:18.119Z,1.10
2023-01-09T15:34:47.118Z,0.97
2023-01-09T15:37:28.029Z,0.90
2023-01-09T15:39:59.079Z,0.90
2023-01-09T15:42:47.447Z,0.80
2023-01-09T15:45:22.967Z,0.80
2023-01-09T15:47:51.208Z,1.00
2023-01-09T15:50:23.565Z,1.00
2023-01-09T15:52:52.853Z,0.80
2023-01-09T15:55:35.630Z,0.90
2023-01-09T15:58:04.937Z,0.80
2023-01-09T16:00:36.284Z,1.10
2023-01-09T16:03:15.869Z,1.07
2023-01-09T16:05:47.833Z,0.97
2023-01-09T16:08:29.550Z,1.10
2023-01-09T16:11:02.971Z,0.90
2023-01-09T16:13:34.097Z,1.00
2023-01-09T16:16:03.935Z,1.10
2023-01-09T16:18:37.303Z,0.90
2023-01-09T16:21:23.713Z,1.10
2023-01-09T16:23:57.448Z,1.03
2023-01-09T16:26:28.876Z,0.80
2023-01-09T16:28:57.919Z,1.00
2023-01-09T16:31:27.971Z,1.00
2023-01-09T16:33:59.697Z,1.00
2023-01-09T16:36:29.446Z,1.00
2023-01-09T16:38:58.459Z,1.30
2023-01-09T16:41:45.773Z,1.10
2023-01-09T16:44:13.998Z,0.90
2023-01-09T16:46:44.327Z,1.00
2023-01-09T16:49:19.625Z,1.20
2023-01-09T16:51:48.378Z,1.00
2023-01-09T16:54:16.836Z,0.90
2023-01-09T16:56:49.498Z,0.93
2023-01-09T16:59:24.392Z,1.10
2023-01-09T17:01:53.462Z,1.03
2023-01-09T17:04:23.895Z,1.00
2023-01-09T17:06:52.571Z,1.20
2023-01-09T17:09:25.885Z,1.30
2023-01-09T17:11:56.790Z,1.00
2023-01-09T17:14:24.928Z,1.13
2023-01-09T17:16:53.076Z,1.10
2023-01-09T17:19:23.593Z,1.10
2023-01-09T17:21:51.708Z,1.40
2023-01-09T17:24:37.694Z,0.90
2023-01-09T17:27:24.724Z,1.00
2023-01-09T17:29:52.795Z,1.00
2023-01-09T17:32:21.126Z,1.00
2023-01-09T17:34:49.231Z,1.00
2023-01-09T17:37:19.559Z,1.00
2023-01-09T17:39:47.976Z,1.00
2023-01-09T17:42:17.401Z,1.10
2023-01-09T17:44:45.510Z,1.00
2023-01-09T17:47:16.253Z,1.30
2023-01-09T17:49:44.691Z,1.47
2023-01-09T17:52:12.833Z,1.20
2023-01-09T17:54:41.183Z,1.07
2023-01-09T17:57:12.058Z,1.00
2023-01-09T17:59:41.610Z,1.10
2023-01-09T18:02:17.697Z,1.10
2023-01-09T18:04:45.897Z,1.00
2023-01-09T18:07:15.931Z,1.10
2023-01-09T18:09:44.716Z,1.03
2023-01-09T18:12:12.797Z,2.20
2023-01-09T18:14:42.513Z,1.20
2023-01-09T18:17:12.965Z,1.00
2023-01-09T18:19:41.271Z,1.10
2023-01-09T18:22:09.479Z,1.03
2023-01-09T18:24:37.807Z,1.03
2023-01-09T18:27:05.843Z,2.27
2023-01-09T18:29:33.960Z,1.20
2023-01-09T18:32:03.379Z,1.10
2023-01-09T18:34:31.585Z,0.90
2023-01-09T18:36:59.760Z,1.00
2023-01-09T18:39:27.859Z,1.10
2023-01-09T18:41:56.056Z,1.23
2023-01-09T18:44:24.774Z,1.10
2023-01-09T18:46:53.018Z,1.10
2023-01-09T18:49:22.470Z,1.00
2023-01-09T18:51:50.759Z,1.00
2023-01-09T18:54:18.907Z,1.20
2023-01-09T18:56:47.024Z,1.10
2023-01-09T18:59:15.189Z,1.20
2023-01-09T19:01:43.316Z,1.20
2023-01-09T19:04:11.600Z,1.50
2023-01-09T19:06:41.329Z,1.87
2023-01-09T19:09:09.773Z,1.43
2023-01-09T19:11:38.077Z,1.73
2023-01-09T19:14:06.219Z,1.33
2023-01-09T19:16:34.482Z,1.30
2023-01-09T19:19:03.260Z,1.40
2023-01-09T19:21:31.440Z,1.47
2023-01-09T19:24:00.996Z,1.13
2023-01-09T19:26:30.902Z,1.30
2023-01-09T19:28:59.262Z,1.50
2023-01-09T19:31:28.917Z,1.20
2023-01-09T19:33:57.781Z,1.40
2023-01-09T19:36:26.181Z,1.23
2023-01-09T19:38:57.690Z,1.70
2023-01-09T19:41:27.869Z,1.20
2023-01-09T19:43:56.065Z,1.40
2023-01-09T19:46:26.254Z,1.27
2023-01-09T19:48:57.081Z,1.50
2023-01-09T19:51:25.975Z,1.87
2023-01-09T19:53:55.680Z,1.30
2023-01-09T19:56:29.023Z,1.00
2023-01-09T19:58:58.992Z,1.20
2023-01-09T20:01:29.838Z,1.20
2023-01-09T20:04:02.844Z,1.23
2023-01-09T20:06:31.992Z,1.47
2023-01-09T20:09:02.623Z,1.47
2023-01-09T20:11:34.000Z,1.17
2023-01-09T20:14:02.192Z,1.17
2023-01-09T20:16:31.846Z,1.60
2023-01-09T20:19:03.656Z,1.00
2023-01-09T20:21:32.268Z,1.20
2023-01-09T20:24:02.390Z,0.90
2023-01-09T20:26:32.569Z,1.43
2023-01-09T20:29:01.447Z,1.20
2023-01-09T20:31:31.463Z,1.40
2023-01-09T20:34:00.559Z,1.20
2023-01-09T20:36:30.451Z,1.10
2023-01-09T20:39:00.447Z,1.20
2023-01-09T20:41:31.249Z,1.30
2023-01-09T20:44:02.217Z,1.10
2023-01-09T20:46:32.839Z,1.10
2023-01-09T20:49:03.424Z,1.10
2023-01-09T20:51:32.158Z,1.20
2023-01-09T20:54:00.744Z,1.30
2023-01-09T20:56:30.794Z,1.00
2023-01-09T20:59:01.807Z,1.00
2023-01-09T21:01:30.402Z,1.00
2023-01-09T21:03:59.037Z,1.10
2023-01-09T21:06:28.505Z,1.20
2023-01-09T21:08:56.972Z,1.10
2023-01-09T21:11:25.343Z,1.10
2023-01-09T21:13:53.605Z,1.10
2023-01-09T21:16:24.817Z,1.20
2023-01-09T21:18:54.559Z,1.23
2023-01-09T21:21:24.149Z,1.03
2023-01-09T21:23:54.818Z,1.20
2023-01-09T21:26:27.481Z,1.20
2023-01-09T21:28:57.812Z,1.10
2023-01-09T21:31:33.450Z,1.37
2023-01-09T21:34:03.232Z,1.33
2023-01-09T21:36:31.459Z,1.10
2023-01-09T21:38:59.913Z,1.30
2023-01-09T21:41:45.768Z,1.73
2023-01-09T21:44:40.321Z,1.03
2023-01-09T21:47:09.828Z,1.20
2023-01-09T21:49:41.567Z,1.17
2023-01-09T21:52:09.974Z,1.17
2023-01-09T21:54:38.084Z,1.10
2023-01-09T21:57:06.713Z,1.10
2023-01-09T21:59:35.005Z,1.40
2023-01-09T22:02:03.065Z,1.43
2023-01-09T22:04:33.520Z,1.30
2023-01-09T22:07:01.594Z,1.30
2023-01-09T22:09:29.685Z,1.10
2023-01-09T22:11:57.835Z,1.10
2023-01-09T22:14:25.927Z,1.10
2023-01-09T22:16:54.094Z,1.30
2023-01-09T22:19:22.338Z,1.30
2023-01-09T22:21:51.841Z,1.10
2023-01-09T22:24:21.766Z,1.30
2023-01-09T22:26:50.005Z,1.20
2023-01-09T22:29:18.158Z,1.13
2023-01-09T22:31:46.380Z,1.10
2023-01-09T22:34:17.112Z,1.10
2023-01-09T22:36:45.985Z,1.00
2023-01-09T22:39:17.999Z,1.07
2023-01-09T22:41:46.461Z,1.10
2023-01-09T22:44:14.693Z,1.30
2023-01-09T22:46:42.749Z,1.30
2023-01-09T22:49:12.172Z,1.20
2023-01-09T22:51:40.528Z,1.13
2023-01-09T22:54:09.090Z,1.20
2023-01-09T22:56:38.613Z,1.10
2023-01-09T22:59:06.903Z,1.20
2023-01-09T23:01:35.201Z,1.20
2023-01-09T23:04:04.935Z,1.00
2023-01-09T23:06:33.146Z,1.03
2023-01-09T23:09:01.396Z,0.80
2023-01-09T23:11:48.922Z,0.90
2023-01-09T23:14:19.125Z,0.90
2023-01-09T23:16:47.341Z,0.80
2023-01-09T23:19:15.860Z,0.80
2023-01-09T23:21:45.127Z,0.90
2023-01-09T23:24:14.658Z,0.90
2023-01-09T23:26:43.575Z,1.00
2023-01-09T23:29:12.688Z,0.80
2023-01-09T23:31:42.227Z,1.07
2023-01-09T23:34:14.789Z,0.90
2023-01-09T23:36:43.029Z,0.90
2023-01-09T23:39:11.610Z,1.00
2023-01-09T23:41:58.229Z,0.90
2023-01-09T23:44:26.544Z,0.93
2023-01-09T23:46:56.260Z,1.10
2023-01-09T23:49:24.464Z,0.90
2023-01-09T23:51:52.527Z,0.97
2023-01-09T23:54:20.725Z,1.10
2023-01-09T23:56:48.914Z,1.00
2023-01-09T23:59:18.028Z,0.90
